This is the latest recevied weather packets stored in our database for station/object K1AWR. If no packets are shown the sender has not sent any weather packets the latest 10 day(s).
| Time | Temp. | Humidity | Pressure | Rain* | Wind** | Luminosity | Snow |
|---|---|---|---|---|---|---|---|
| 1778191043 | 15.56° C | 34% | 1008.2 hPa | 0 mm | - | 46 W/m² | - |
| 1778190741 | 15.56° C | 34% | 1008.1 hPa | 0 mm | - | 53 W/m² | - |
| 1778190438 | 15.56° C | 34% | 1008.3 hPa | 0 mm | - | 48 W/m² | - |
| 1778190135 | 15.56° C | 36% | 1008.2 hPa | 0 mm | - | 59 W/m² | - |
| 1778189830 | 16.11° C | 35% | 1008.2 hPa | 0 mm | - | 65 W/m² | - |
| 1778189528 | 16.11° C | 34% | 1008.2 hPa | 0 mm | - | 68 W/m² | - |
| 1778189223 | 16.11° C | 34% | 1008.1 hPa | 0 mm | - | 285 W/m² | - |
| 1778188921 | 16.67° C | 33% | 1008.1 hPa | 0 mm | - | 294 W/m² | - |
| 1778188617 | 16.11° C | 33% | 1008.1 hPa | 0 mm | - | 324 W/m² | - |
| 1778188313 | 17.22° C | 34% | 1008 hPa | 0 mm | - | 335 W/m² | - |
| 1778188010 | 16.67° C | 35% | 1007.9 hPa | 0 mm | - | 347 W/m² | - |
| 1778187707 | 16.11° C | 34% | 1007.8 hPa | 0 mm | - | 377 W/m² | - |
| 1778187403 | 17.22° C | 34% | 1007.9 hPa | 0 mm | - | 238 W/m² | - |
| 1778187100 | 16.67° C | 33% | 1007.9 hPa | 0 mm | - | 390 W/m² | - |
| 1778186796 | 16.67° C | 33% | 1007.9 hPa | 0 mm | - | 353 W/m² | - |
| 1778186494 | 16.67° C | 34% | 1008 hPa | 0 mm | - | 81 W/m² | - |
| 1778186192 | 16.67° C | 32% | 1008 hPa | 0 mm | - | 440 W/m² | - |
| 1778185889 | 16.11° C | 33% | 1008.1 hPa | 0 mm | - | 455 W/m² | - |
| 1778185585 | 16.11° C | 34% | 1008 hPa | 0 mm | - | 498 W/m² | - |
| 1778185281 | 16.11° C | 34% | 1008.2 hPa | 0 mm | - | 498 W/m² | - |
| 1778184976 | 17.78° C | 32% | 1008.1 hPa | 0 mm | - | 351 W/m² | - |
| 1778184674 | 17.78° C | 35% | 1008 hPa | 0 mm | - | 502 W/m² | - |
| 1778184369 | 16.67° C | 36% | 1008.2 hPa | 0 mm | - | 512 W/m² | - |
| 1778184065 | 16.67° C | 38% | 1008.3 hPa | 0 mm | - | 170 W/m² | - |
| 1778183763 | 17.78° C | 33% | 1008.1 hPa | 0 mm | - | 584 W/m² | - |
* Rain latest hour (hover to see other rain measurements)
** Current wind speed in m/s (hover to see current wind gust speed)